sensor_id;sensor_type;location;lat;lon;timestamp;temperature;humidity
20726;DHT22;10524;48.132;8.518;2022-08-01T00:02:13;14.60;99.90
20726;DHT22;10524;48.132;8.518;2022-08-01T00:04:39;14.50;99.90
20726;DHT22;10524;48.132;8.518;2022-08-01T00:07:04;14.50;99.90
20726;DHT22;10524;48.132;8.518;2022-08-01T00:09:30;14.50;99.90
20726;DHT22;10524;48.132;8.518;2022-08-01T00:11:56;14.60;99.90
20726;DHT22;10524;48.132;8.518;2022-08-01T00:14:21;14.60;99.90
20726;DHT22;10524;48.132;8.518;2022-08-01T00:16:47;14.60;99.90
20726;DHT22;10524;48.132;8.518;2022-08-01T00:19:13;14.50;99.90
20726;DHT22;10524;48.132;8.518;2022-08-01T00:21:38;14.40;99.90
20726;DHT22;10524;48.132;8.518;2022-08-01T00:24:04;14.30;99.90
20726;DHT22;10524;48.132;8.518;2022-08-01T00:26:29;14.10;99.90
20726;DHT22;10524;48.132;8.518;2022-08-01T00:28:55;14.10;99.90
20726;DHT22;10524;48.132;8.518;2022-08-01T00:31:21;14.10;99.90
20726;DHT22;10524;48.132;8.518;2022-08-01T00:33:46;14.00;99.90
20726;DHT22;10524;48.132;8.518;2022-08-01T00:36:12;13.90;99.90
20726;DHT22;10524;48.132;8.518;2022-08-01T00:38:38;13.80;99.90
20726;DHT22;10524;48.132;8.518;2022-08-01T00:41:03;13.80;99.90
20726;DHT22;10524;48.132;8.518;2022-08-01T00:43:29;13.80;99.90
20726;DHT22;10524;48.132;8.518;2022-08-01T00:45:54;13.80;99.90
20726;DHT22;10524;48.132;8.518;2022-08-01T00:48:20;13.70;99.90
20726;DHT22;10524;48.132;8.518;2022-08-01T00:50:46;13.70;99.90
20726;DHT22;10524;48.132;8.518;2022-08-01T00:53:12;13.70;99.90
20726;DHT22;10524;48.132;8.518;2022-08-01T00:55:38;13.70;99.90
20726;DHT22;10524;48.132;8.518;2022-08-01T00:58:04;13.70;99.90
20726;DHT22;10524;48.132;8.518;2022-08-01T01:00:30;13.70;99.90
20726;DHT22;10524;48.132;8.518;2022-08-01T01:02:56;13.60;99.90
20726;DHT22;10524;48.132;8.518;2022-08-01T01:05:21;13.60;99.90
20726;DHT22;10524;48.132;8.518;2022-08-01T01:07:54;13.70;99.90
20726;DHT22;10524;48.132;8.518;2022-08-01T01:10:40;13.80;99.90
20726;DHT22;10524;48.132;8.518;2022-08-01T01:13:18;13.80;99.90
20726;DHT22;10524;48.132;8.518;2022-08-01T01:15:50;13.90;99.90
20726;DHT22;10524;48.132;8.518;2022-08-01T01:18:32;13.90;99.90
20726;DHT22;10524;48.132;8.518;2022-08-01T01:26:57;13.70;99.90
20726;DHT22;10524;48.132;8.518;2022-08-01T01:29:42;13.80;99.90
20726;DHT22;10524;48.132;8.518;2022-08-01T01:34:49;13.80;99.90
20726;DHT22;10524;48.132;8.518;2022-08-01T01:37:17;13.80;99.90
20726;DHT22;10524;48.132;8.518;2022-08-01T01:39:44;13.70;99.90
20726;DHT22;10524;48.132;8.518;2022-08-01T01:42:11;13.60;99.90
20726;DHT22;10524;48.132;8.518;2022-08-01T01:44:38;13.60;99.90
20726;DHT22;10524;48.132;8.518;2022-08-01T01:47:04;13.50;99.90
20726;DHT22;10524;48.132;8.518;2022-08-01T01:49:32;13.40;99.90
20726;DHT22;10524;48.132;8.518;2022-08-01T01:51:59;13.40;99.90
20726;DHT22;10524;48.132;8.518;2022-08-01T01:54:30;13.40;99.90
20726;DHT22;10524;48.132;8.518;2022-08-01T01:56:58;13.40;99.90
20726;DHT22;10524;48.132;8.518;2022-08-01T01:59:28;13.30;99.90
20726;DHT22;10524;48.132;8.518;2022-08-01T02:01:58;13.20;99.90
20726;DHT22;10524;48.132;8.518;2022-08-01T02:04:25;13.20;99.90
20726;DHT22;10524;48.132;8.518;2022-08-01T02:06:53;13.10;99.90
20726;DHT22;10524;48.132;8.518;2022-08-01T02:09:20;13.10;99.90
20726;DHT22;10524;48.132;8.518;2022-08-01T02:11:48;13.00;99.90
20726;DHT22;10524;48.132;8.518;2022-08-01T02:14:17;12.90;99.90
20726;DHT22;10524;48.132;8.518;2022-08-01T02:16:47;12.90;99.90
20726;DHT22;10524;48.132;8.518;2022-08-01T02:19:13;12.80;99.90
20726;DHT22;10524;48.132;8.518;2022-08-01T02:22:01;12.70;99.90
20726;DHT22;10524;48.132;8.518;2022-08-01T02:24:50;12.60;99.90
20726;DHT22;10524;48.132;8.518;2022-08-01T02:27:39;12.50;99.90
20726;DHT22;10524;48.132;8.518;2022-08-01T02:30:07;12.40;99.90
20726;DHT22;10524;48.132;8.518;2022-08-01T02:32:41;12.40;99.90
20726;DHT22;10524;48.132;8.518;2022-08-01T02:35:13;12.30;99.90
20726;DHT22;10524;48.132;8.518;2022-08-01T02:37:39;12.30;99.90
20726;DHT22;10524;48.132;8.518;2022-08-01T02:40:08;12.40;99.90
20726;DHT22;10524;48.132;8.518;2022-08-01T02:42:36;12.40;99.90
20726;DHT22;10524;48.132;8.518;2022-08-01T02:45:04;12.50;99.90
20726;DHT22;10524;48.132;8.518;2022-08-01T02:47:32;12.50;99.90
20726;DHT22;10524;48.132;8.518;2022-08-01T02:49:59;12.50;99.90
20726;DHT22;10524;48.132;8.518;2022-08-01T02:52:25;12.50;99.90
20726;DHT22;10524;48.132;8.518;2022-08-01T02:54:54;12.40;99.90
20726;DHT22;10524;48.132;8.518;2022-08-01T02:57:21;12.50;99.90
20726;DHT22;10524;48.132;8.518;2022-08-01T02:59:48;12.40;99.90
20726;DHT22;10524;48.132;8.518;2022-08-01T03:02:15;12.30;99.90
20726;DHT22;10524;48.132;8.518;2022-08-01T03:04:42;12.20;99.90
20726;DHT22;10524;48.132;8.518;2022-08-01T03:07:10;12.20;99.90
20726;DHT22;10524;48.132;8.518;2022-08-01T03:09:41;12.10;99.90
20726;DHT22;10524;48.132;8.518;2022-08-01T03:12:13;12.10;99.90
20726;DHT22;10524;48.132;8.518;2022-08-01T03:14:40;12.00;99.90
20726;DHT22;10524;48.132;8.518;2022-08-01T03:17:08;12.00;99.90
20726;DHT22;10524;48.132;8.518;2022-08-01T03:19:35;12.00;99.90
20726;DHT22;10524;48.132;8.518;2022-08-01T03:22:06;12.00;99.90
20726;DHT22;10524;48.132;8.518;2022-08-01T03:24:35;12.00;99.90
20726;DHT22;10524;48.132;8.518;2022-08-01T03:27:03;11.90;99.90
20726;DHT22;10524;48.132;8.518;2022-08-01T03:29:30;11.80;99.90
20726;DHT22;10524;48.132;8.518;2022-08-01T03:31:58;11.80;99.90
20726;DHT22;10524;48.132;8.518;2022-08-01T03:34:25;11.70;99.90
20726;DHT22;10524;48.132;8.518;2022-08-01T03:36:55;11.80;99.90
20726;DHT22;10524;48.132;8.518;2022-08-01T03:39:25;11.80;99.90
20726;DHT22;10524;48.132;8.518;2022-08-01T03:41:56;11.80;99.90
20726;DHT22;10524;48.132;8.518;2022-08-01T03:44:26;11.70;99.90
20726;DHT22;10524;48.132;8.518;2022-08-01T03:47:00;11.70;99.90
20726;DHT22;10524;48.132;8.518;2022-08-01T03:49:31;11.70;99.90
20726;DHT22;10524;48.132;8.518;2022-08-01T03:52:01;11.70;99.90
20726;DHT22;10524;48.132;8.518;2022-08-01T03:54:31;11.70;99.90
20726;DHT22;10524;48.132;8.518;2022-08-01T03:57:00;11.70;99.90
20726;DHT22;10524;48.132;8.518;2022-08-01T03:59:26;11.70;99.90
20726;DHT22;10524;48.132;8.518;2022-08-01T04:01:52;11.70;99.90
20726;DHT22;10524;48.132;8.518;2022-08-01T04:04:19;11.70;99.90
20726;DHT22;10524;48.132;8.518;2022-08-01T04:06:44;11.80;99.90
20726;DHT22;10524;48.132;8.518;2022-08-01T04:09:11;11.70;99.90
20726;DHT22;10524;48.132;8.518;2022-08-01T04:11:38;11.70;99.90
20726;DHT22;10524;48.132;8.518;2022-08-01T04:14:05;11.70;99.90
20726;DHT22;10524;48.132;8.518;2022-08-01T04:16:31;11.70;99.90
20726;DHT22;10524;48.132;8.518;2022-08-01T04:18:56;11.70;99.90
20726;DHT22;10524;48.132;8.518;2022-08-01T04:21:25;11.70;99.90
20726;DHT22;10524;48.132;8.518;2022-08-01T04:23:56;11.80;99.90
20726;DHT22;10524;48.132;8.518;2022-08-01T04:26:24;11.90;99.90
20726;DHT22;10524;48.132;8.518;2022-08-01T04:28:52;11.90;99.90
20726;DHT22;10524;48.132;8.518;2022-08-01T04:31:21;12.00;99.90
20726;DHT22;10524;48.132;8.518;2022-08-01T04:33:49;12.50;99.90
20726;DHT22;10524;48.132;8.518;2022-08-01T04:36:18;13.20;99.90
20726;DHT22;10524;48.132;8.518;2022-08-01T04:38:47;14.00;99.90
20726;DHT22;10524;48.132;8.518;2022-08-01T04:41:16;14.80;99.90
20726;DHT22;10524;48.132;8.518;2022-08-01T04:43:42;15.50;99.90
20726;DHT22;10524;48.132;8.518;2022-08-01T04:46:09;16.20;99.90
20726;DHT22;10524;48.132;8.518;2022-08-01T04:48:37;16.90;99.90
20726;DHT22;10524;48.132;8.518;2022-08-01T04:51:04;17.60;99.90
20726;DHT22;10524;48.132;8.518;2022-08-01T04:53:30;18.40;99.90
20726;DHT22;10524;48.132;8.518;2022-08-01T04:55:58;18.70;99.90
20726;DHT22;10524;48.132;8.518;2022-08-01T04:58:23;18.70;99.90
20726;DHT22;10524;48.132;8.518;2022-08-01T05:00:49;18.70;99.90
20726;DHT22;10524;48.132;8.518;2022-08-01T05:03:15;18.80;99.90
20726;DHT22;10524;48.132;8.518;2022-08-01T05:05:40;19.00;99.90
20726;DHT22;10524;48.132;8.518;2022-08-01T05:08:06;19.30;99.90
20726;DHT22;10524;48.132;8.518;2022-08-01T05:10:32;20.00;99.90
20726;DHT22;10524;48.132;8.518;2022-08-01T05:12:58;20.70;99.90
20726;DHT22;10524;48.132;8.518;2022-08-01T05:15:24;21.40;99.90
20726;DHT22;10524;48.132;8.518;2022-08-01T05:17:49;21.90;99.90
20726;DHT22;10524;48.132;8.518;2022-08-01T05:20:15;21.90;99.90
20726;DHT22;10524;48.132;8.518;2022-08-01T05:22:41;22.10;99.90
20726;DHT22;10524;48.132;8.518;2022-08-01T05:25:08;22.40;99.90
20726;DHT22;10524;48.132;8.518;2022-08-01T05:27:34;22.70;99.90
20726;DHT22;10524;48.132;8.518;2022-08-01T05:30:06;22.90;99.90
20726;DHT22;10524;48.132;8.518;2022-08-01T05:32:31;22.90;99.90
20726;DHT22;10524;48.132;8.518;2022-08-01T05:34:57;23.10;99.90
20726;DHT22;10524;48.132;8.518;2022-08-01T05:37:23;23.50;99.90
20726;DHT22;10524;48.132;8.518;2022-08-01T05:39:48;24.20;99.90
20726;DHT22;10524;48.132;8.518;2022-08-01T05:42:14;24.10;99.90
20726;DHT22;10524;48.132;8.518;2022-08-01T05:44:40;23.90;99.90
20726;DHT22;10524;48.132;8.518;2022-08-01T05:47:05;23.90;99.90
20726;DHT22;10524;48.132;8.518;2022-08-01T05:49:31;24.10;99.90
20726;DHT22;10524;48.132;8.518;2022-08-01T05:51:57;24.90;99.90
20726;DHT22;10524;48.132;8.518;2022-08-01T05:54:22;25.30;99.90
20726;DHT22;10524;48.132;8.518;2022-08-01T05:56:48;25.40;99.90
20726;DHT22;10524;48.132;8.518;2022-08-01T05:59:13;25.30;99.90
20726;DHT22;10524;48.132;8.518;2022-08-01T06:01:39;25.10;99.90
20726;DHT22;10524;48.132;8.518;2022-08-01T06:04:05;25.30;99.90
20726;DHT22;10524;48.132;8.518;2022-08-01T06:06:30;25.70;99.90
20726;DHT22;10524;48.132;8.518;2022-08-01T06:08:56;26.10;99.90
20726;DHT22;10524;48.132;8.518;2022-08-01T06:11:22;26.80;99.90
20726;DHT22;10524;48.132;8.518;2022-08-01T06:13:47;27.30;99.90
20726;DHT22;10524;48.132;8.518;2022-08-01T06:16:13;27.40;99.90
20726;DHT22;10524;48.132;8.518;2022-08-01T06:18:38;27.70;99.90
20726;DHT22;10524;48.132;8.518;2022-08-01T06:21:04;27.70;99.90
20726;DHT22;10524;48.132;8.518;2022-08-01T06:23:30;27.60;99.90
20726;DHT22;10524;48.132;8.518;2022-08-01T06:25:55;27.60;99.90
20726;DHT22;10524;48.132;8.518;2022-08-01T06:28:21;27.60;99.90
20726;DHT22;10524;48.132;8.518;2022-08-01T06:30:47;28.00;99.90
20726;DHT22;10524;48.132;8.518;2022-08-01T06:33:13;28.50;99.90
20726;DHT22;10524;48.132;8.518;2022-08-01T06:35:38;28.90;99.90
20726;DHT22;10524;48.132;8.518;2022-08-01T06:38:04;29.60;99.90
20726;DHT22;10524;48.132;8.518;2022-08-01T06:40:30;29.50;99.90
20726;DHT22;10524;48.132;8.518;2022-08-01T06:42:55;29.40;99.90
20726;DHT22;10524;48.132;8.518;2022-08-01T06:45:21;29.50;99.90
20726;DHT22;10524;48.132;8.518;2022-08-01T06:47:48;30.20;99.90
20726;DHT22;10524;48.132;8.518;2022-08-01T06:50:14;30.60;99.90
20726;DHT22;10524;48.132;8.518;2022-08-01T06:52:40;30.90;99.90
20726;DHT22;10524;48.132;8.518;2022-08-01T06:55:06;30.90;99.90
20726;DHT22;10524;48.132;8.518;2022-08-01T06:57:32;31.40;99.90
20726;DHT22;10524;48.132;8.518;2022-08-01T07:00:02;32.30;99.90
20726;DHT22;10524;48.132;8.518;2022-08-01T07:02:28;33.50;99.00
20726;DHT22;10524;48.132;8.518;2022-08-01T07:04:54;33.30;98.10
20726;DHT22;10524;48.132;8.518;2022-08-01T07:07:19;34.00;97.80
20726;DHT22;10524;48.132;8.518;2022-08-01T07:09:45;35.30;96.60
20726;DHT22;10524;48.132;8.518;2022-08-01T07:12:10;33.80;96.10
20726;DHT22;10524;48.132;8.518;2022-08-01T07:14:36;33.30;96.80
20726;DHT22;10524;48.132;8.518;2022-08-01T07:17:02;34.30;96.60
20726;DHT22;10524;48.132;8.518;2022-08-01T07:19:28;33.90;96.10
20726;DHT22;10524;48.132;8.518;2022-08-01T07:21:53;32.90;96.20
20726;DHT22;10524;48.132;8.518;2022-08-01T07:24:19;32.20;96.90
20726;DHT22;10524;48.132;8.518;2022-08-01T07:26:46;31.90;97.30
20726;DHT22;10524;48.132;8.518;2022-08-01T07:29:12;31.30;98.10
20726;DHT22;10524;48.132;8.518;2022-08-01T07:31:38;31.10;98.10
20726;DHT22;10524;48.132;8.518;2022-08-01T07:34:03;32.00;97.80
20726;DHT22;10524;48.132;8.518;2022-08-01T07:36:29;33.10;96.60
20726;DHT22;10524;48.132;8.518;2022-08-01T07:38:55;33.40;96.00
20726;DHT22;10524;48.132;8.518;2022-08-01T07:41:21;33.50;96.20
20726;DHT22;10524;48.132;8.518;2022-08-01T07:43:46;33.30;96.30
20726;DHT22;10524;48.132;8.518;2022-08-01T07:46:15;32.10;97.10
20726;DHT22;10524;48.132;8.518;2022-08-01T07:48:41;31.70;97.70
20726;DHT22;10524;48.132;8.518;2022-08-01T07:51:07;32.40;97.00
20726;DHT22;10524;48.132;8.518;2022-08-01T07:53:34;32.50;96.90
20726;DHT22;10524;48.132;8.518;2022-08-01T07:56:00;32.70;97.00
20726;DHT22;10524;48.132;8.518;2022-08-01T07:58:27;33.00;96.20
20726;DHT22;10524;48.132;8.518;2022-08-01T08:00:53;34.00;95.80
20726;DHT22;10524;48.132;8.518;2022-08-01T08:03:19;35.90;95.00
20726;DHT22;10524;48.132;8.518;2022-08-01T08:05:44;36.10;94.00
20726;DHT22;10524;48.132;8.518;2022-08-01T08:08:10;36.60;93.70
20726;DHT22;10524;48.132;8.518;2022-08-01T08:10:36;36.70;93.30
20726;DHT22;10524;48.132;8.518;2022-08-01T08:13:02;36.10;93.40
20726;DHT22;10524;48.132;8.518;2022-08-01T08:15:28;35.90;93.00
20726;DHT22;10524;48.132;8.518;2022-08-01T08:17:54;36.50;92.80
20726;DHT22;10524;48.132;8.518;2022-08-01T08:20:20;36.00;92.80
20726;DHT22;10524;48.132;8.518;2022-08-01T08:22:50;36.40;92.70
20726;DHT22;10524;48.132;8.518;2022-08-01T08:25:16;37.00;92.60
20726;DHT22;10524;48.132;8.518;2022-08-01T08:27:45;37.40;92.00
20726;DHT22;10524;48.132;8.518;2022-08-01T08:30:11;36.90;91.60
20726;DHT22;10524;48.132;8.518;2022-08-01T08:32:37;36.20;92.20
20726;DHT22;10524;48.132;8.518;2022-08-01T08:35:03;34.60;92.80
20726;DHT22;10524;48.132;8.518;2022-08-01T08:37:30;36.10;92.50
20726;DHT22;10524;48.132;8.518;2022-08-01T08:39:56;38.40;91.20
20726;DHT22;10524;48.132;8.518;2022-08-01T08:42:22;39.00;90.50
20726;DHT22;10524;48.132;8.518;2022-08-01T08:44:48;38.50;90.10
20726;DHT22;10524;48.132;8.518;2022-08-01T08:47:14;35.80;91.00
20726;DHT22;10524;48.132;8.518;2022-08-01T08:49:43;33.30;92.70
20726;DHT22;10524;48.132;8.518;2022-08-01T08:52:10;34.10;92.70
20726;DHT22;10524;48.132;8.518;2022-08-01T08:54:37;33.40;92.70
20726;DHT22;10524;48.132;8.518;2022-08-01T08:57:04;34.40;92.90
20726;DHT22;10524;48.132;8.518;2022-08-01T08:59:31;33.80;92.30
20726;DHT22;10524;48.132;8.518;2022-08-01T09:01:57;31.80;93.50
20726;DHT22;10524;48.132;8.518;2022-08-01T09:04:24;29.80;95.10
20726;DHT22;10524;48.132;8.518;2022-08-01T09:06:50;29.00;96.00
20726;DHT22;10524;48.132;8.518;2022-08-01T09:09:16;29.90;96.00
20726;DHT22;10524;48.132;8.518;2022-08-01T09:11:42;29.90;96.10
20726;DHT22;10524;48.132;8.518;2022-08-01T09:14:13;31.20;95.50
20726;DHT22;10524;48.132;8.518;2022-08-01T09:16:44;33.80;94.20
20726;DHT22;10524;48.132;8.518;2022-08-01T09:21:38;37.90;91.00
20726;DHT22;10524;48.132;8.518;2022-08-01T09:24:12;35.70;91.30
20726;DHT22;10524;48.132;8.518;2022-08-01T09:26:38;33.10;92.40
20726;DHT22;10524;48.132;8.518;2022-08-01T09:29:05;30.00;94.40
20726;DHT22;10524;48.132;8.518;2022-08-01T09:31:43;28.50;96.00
20726;DHT22;10524;48.132;8.518;2022-08-01T09:34:09;27.70;97.00
20726;DHT22;10524;48.132;8.518;2022-08-01T09:36:56;27.00;97.40
20726;DHT22;10524;48.132;8.518;2022-08-01T09:39:30;26.90;98.10
20726;DHT22;10524;48.132;8.518;2022-08-01T09:41:58;27.10;97.80
20726;DHT22;10524;48.132;8.518;2022-08-01T09:47:02;27.20;97.00
20726;DHT22;10524;48.132;8.518;2022-08-01T09:49:36;30.50;95.90
20726;DHT22;10524;48.132;8.518;2022-08-01T09:52:14;31.50;93.80
20726;DHT22;10524;48.132;8.518;2022-08-01T09:54:42;30.80;94.30
20726;DHT22;10524;48.132;8.518;2022-08-01T09:57:10;32.70;94.30
20726;DHT22;10524;48.132;8.518;2022-08-01T09:59:37;34.60;92.80
20726;DHT22;10524;48.132;8.518;2022-08-01T10:02:05;36.40;91.90
20726;DHT22;10524;48.132;8.518;2022-08-01T10:04:33;35.00;91.30
20726;DHT22;10524;48.132;8.518;2022-08-01T10:07:07;32.40;92.40
20726;DHT22;10524;48.132;8.518;2022-08-01T10:09:35;34.20;92.10
20726;DHT22;10524;48.132;8.518;2022-08-01T10:12:01;36.20;87.20
20726;DHT22;10524;48.132;8.518;2022-08-01T10:14:28;34.80;87.40
20726;DHT22;10524;48.132;8.518;2022-08-01T10:16:56;34.60;87.30
20726;DHT22;10524;48.132;8.518;2022-08-01T10:19:25;33.90;87.80
20726;DHT22;10524;48.132;8.518;2022-08-01T10:21:52;34.20;88.40
20726;DHT22;10524;48.132;8.518;2022-08-01T10:24:20;33.30;87.80
20726;DHT22;10524;48.132;8.518;2022-08-01T10:26:48;33.30;90.00
20726;DHT22;10524;48.132;8.518;2022-08-01T10:29:18;35.10;87.40
20726;DHT22;10524;48.132;8.518;2022-08-01T10:31:46;36.60;85.40
20726;DHT22;10524;48.132;8.518;2022-08-01T10:34:13;38.40;83.30
20726;DHT22;10524;48.132;8.518;2022-08-01T10:36:43;36.50;82.90
20726;DHT22;10524;48.132;8.518;2022-08-01T10:39:13;37.60;84.60
20726;DHT22;10524;48.132;8.518;2022-08-01T10:41:40;38.90;83.30
20726;DHT22;10524;48.132;8.518;2022-08-01T10:44:07;36.10;83.90
20726;DHT22;10524;48.132;8.518;2022-08-01T10:46:37;33.30;86.30
20726;DHT22;10524;48.132;8.518;2022-08-01T10:49:10;31.10;87.50
20726;DHT22;10524;48.132;8.518;2022-08-01T10:51:40;30.80;89.20
20726;DHT22;10524;48.132;8.518;2022-08-01T10:54:08;34.70;87.10
20726;DHT22;10524;48.132;8.518;2022-08-01T10:56:52;37.40;82.60
20726;DHT22;10524;48.132;8.518;2022-08-01T10:59:22;38.70;80.30
20726;DHT22;10524;48.132;8.518;2022-08-01T11:01:59;39.80;79.90
20726;DHT22;10524;48.132;8.518;2022-08-01T11:07:48;36.90;80.00
20726;DHT22;10524;48.132;8.518;2022-08-01T11:10:25;35.10;82.30
20726;DHT22;10524;48.132;8.518;2022-08-01T11:12:55;37.60;78.50
20726;DHT22;10524;48.132;8.518;2022-08-01T11:15:22;38.40;76.70
20726;DHT22;10524;48.132;8.518;2022-08-01T11:17:52;38.20;76.10
20726;DHT22;10524;48.132;8.518;2022-08-01T11:20:18;35.90;79.10
20726;DHT22;10524;48.132;8.518;2022-08-01T11:25:26;36.40;81.70
20726;DHT22;10524;48.132;8.518;2022-08-01T11:30:47;39.70;77.80
20726;DHT22;10524;48.132;8.518;2022-08-01T11:33:15;37.70;77.70
20726;DHT22;10524;48.132;8.518;2022-08-01T11:41:21;36.00;76.50
20726;DHT22;10524;48.132;8.518;2022-08-01T11:52:09;35.90;78.10
20726;DHT22;10524;48.132;8.518;2022-08-01T11:54:39;36.50;77.10
20726;DHT22;10524;48.132;8.518;2022-08-01T11:57:07;37.20;75.10
20726;DHT22;10524;48.132;8.518;2022-08-01T11:59:42;37.80;77.20
20726;DHT22;10524;48.132;8.518;2022-08-01T12:02:28;35.80;75.70
20726;DHT22;10524;48.132;8.518;2022-08-01T12:05:00;33.10;78.00
20726;DHT22;10524;48.132;8.518;2022-08-01T12:07:28;32.20;79.40
20726;DHT22;10524;48.132;8.518;2022-08-01T12:10:04;35.10;77.90
20726;DHT22;10524;48.132;8.518;2022-08-01T12:12:31;37.20;76.80
20726;DHT22;10524;48.132;8.518;2022-08-01T12:15:01;38.60;74.30
20726;DHT22;10524;48.132;8.518;2022-08-01T12:17:37;38.10;74.80
20726;DHT22;10524;48.132;8.518;2022-08-01T12:20:05;38.00;74.60
20726;DHT22;10524;48.132;8.518;2022-08-01T12:22:31;38.30;73.10
20726;DHT22;10524;48.132;8.518;2022-08-01T12:25:09;37.90;72.70
20726;DHT22;10524;48.132;8.518;2022-08-01T12:27:36;35.80;74.10
20726;DHT22;10524;48.132;8.518;2022-08-01T12:30:05;35.00;75.70
20726;DHT22;10524;48.132;8.518;2022-08-01T12:32:34;36.90;74.20
20726;DHT22;10524;48.132;8.518;2022-08-01T12:35:12;38.00;73.10
20726;DHT22;10524;48.132;8.518;2022-08-01T12:37:44;38.40;73.80
20726;DHT22;10524;48.132;8.518;2022-08-01T12:42:41;39.40;72.60
20726;DHT22;10524;48.132;8.518;2022-08-01T12:45:09;39.50;72.20
20726;DHT22;10524;48.132;8.518;2022-08-01T12:47:36;39.60;71.00
20726;DHT22;10524;48.132;8.518;2022-08-01T12:50:06;39.50;73.70
20726;DHT22;10524;48.132;8.518;2022-08-01T12:52:33;38.40;73.10
20726;DHT22;10524;48.132;8.518;2022-08-01T12:55:07;35.40;74.40
20726;DHT22;10524;48.132;8.518;2022-08-01T12:57:37;35.30;78.70
20726;DHT22;10524;48.132;8.518;2022-08-01T13:00:09;36.70;73.10
20726;DHT22;10524;48.132;8.518;2022-08-01T13:02:35;38.00;72.00
20726;DHT22;10524;48.132;8.518;2022-08-01T13:05:02;38.50;73.90
20726;DHT22;10524;48.132;8.518;2022-08-01T13:07:54;38.80;74.10
20726;DHT22;10524;48.132;8.518;2022-08-01T13:10:29;39.60;72.60
20726;DHT22;10524;48.132;8.518;2022-08-01T13:12:57;40.30;71.80
20726;DHT22;10524;48.132;8.518;2022-08-01T13:15:31;40.20;72.80
20726;DHT22;10524;48.132;8.518;2022-08-01T13:17:59;39.80;73.50
20726;DHT22;10524;48.132;8.518;2022-08-01T13:20:30;39.00;74.10
20726;DHT22;10524;48.132;8.518;2022-08-01T13:23:16;37.90;74.70
20726;DHT22;10524;48.132;8.518;2022-08-01T13:25:54;37.80;74.80
20726;DHT22;10524;48.132;8.518;2022-08-01T13:28:25;37.30;75.40
20726;DHT22;10524;48.132;8.518;2022-08-01T13:30:59;37.70;76.20
20726;DHT22;10524;48.132;8.518;2022-08-01T13:33:27;37.90;75.80
20726;DHT22;10524;48.132;8.518;2022-08-01T13:35:55;37.70;76.50
20726;DHT22;10524;48.132;8.518;2022-08-01T13:38:21;36.40;77.40
20726;DHT22;10524;48.132;8.518;2022-08-01T13:41:07;36.30;78.50
20726;DHT22;10524;48.132;8.518;2022-08-01T13:43:33;36.30;77.30
20726;DHT22;10524;48.132;8.518;2022-08-01T13:46:01;36.40;77.90
20726;DHT22;10524;48.132;8.518;2022-08-01T13:48:30;36.20;77.70
20726;DHT22;10524;48.132;8.518;2022-08-01T13:50:56;35.70;77.00
20726;DHT22;10524;48.132;8.518;2022-08-01T13:53:21;35.10;78.50
20726;DHT22;10524;48.132;8.518;2022-08-01T13:55:47;34.00;80.70
20726;DHT22;10524;48.132;8.518;2022-08-01T13:58:13;35.30;79.80
20726;DHT22;10524;48.132;8.518;2022-08-01T14:00:38;35.90;79.60
20726;DHT22;10524;48.132;8.518;2022-08-01T14:03:04;36.50;76.20
20726;DHT22;10524;48.132;8.518;2022-08-01T14:05:30;36.30;77.30
20726;DHT22;10524;48.132;8.518;2022-08-01T14:07:56;36.50;77.40
20726;DHT22;10524;48.132;8.518;2022-08-01T14:10:23;36.70;76.80
20726;DHT22;10524;48.132;8.518;2022-08-01T14:12:48;36.60;77.50
20726;DHT22;10524;48.132;8.518;2022-08-01T14:15:15;35.60;76.50
20726;DHT22;10524;48.132;8.518;2022-08-01T14:17:41;34.40;78.10
20726;DHT22;10524;48.132;8.518;2022-08-01T14:20:06;32.90;79.90
20726;DHT22;10524;48.132;8.518;2022-08-01T14:22:32;32.40;81.10
20726;DHT22;10524;48.132;8.518;2022-08-01T14:24:58;31.90;82.30
20726;DHT22;10524;48.132;8.518;2022-08-01T14:27:24;31.70;83.60
20726;DHT22;10524;48.132;8.518;2022-08-01T14:29:50;31.60;83.80
20726;DHT22;10524;48.132;8.518;2022-08-01T14:32:16;31.70;84.50
20726;DHT22;10524;48.132;8.518;2022-08-01T14:34:41;31.30;84.70
20726;DHT22;10524;48.132;8.518;2022-08-01T14:37:07;30.80;85.30
20726;DHT22;10524;48.132;8.518;2022-08-01T14:39:32;30.40;85.50
20726;DHT22;10524;48.132;8.518;2022-08-01T14:41:58;30.10;86.50
20726;DHT22;10524;48.132;8.518;2022-08-01T14:44:24;29.60;87.40
20726;DHT22;10524;48.132;8.518;2022-08-01T14:46:49;29.30;88.30
20726;DHT22;10524;48.132;8.518;2022-08-01T14:49:15;29.40;88.40
20726;DHT22;10524;48.132;8.518;2022-08-01T14:51:41;29.20;88.00
20726;DHT22;10524;48.132;8.518;2022-08-01T14:54:06;29.20;87.90
20726;DHT22;10524;48.132;8.518;2022-08-01T14:56:32;29.40;88.00
20726;DHT22;10524;48.132;8.518;2022-08-01T14:58:58;29.30;88.80
20726;DHT22;10524;48.132;8.518;2022-08-01T15:01:24;29.60;88.80
20726;DHT22;10524;48.132;8.518;2022-08-01T15:03:50;29.50;88.90
20726;DHT22;10524;48.132;8.518;2022-08-01T15:06:17;29.50;89.20
20726;DHT22;10524;48.132;8.518;2022-08-01T15:08:46;29.50;89.00
20726;DHT22;10524;48.132;8.518;2022-08-01T15:11:12;29.30;89.90
20726;DHT22;10524;48.132;8.518;2022-08-01T15:13:37;29.20;89.90
20726;DHT22;10524;48.132;8.518;2022-08-01T15:16:06;29.20;89.70
20726;DHT22;10524;48.132;8.518;2022-08-01T15:18:31;29.10;90.10
20726;DHT22;10524;48.132;8.518;2022-08-01T15:20:57;28.90;90.40
20726;DHT22;10524;48.132;8.518;2022-08-01T15:23:23;28.90;90.50
20726;DHT22;10524;48.132;8.518;2022-08-01T15:25:49;28.50;90.70
20726;DHT22;10524;48.132;8.518;2022-08-01T15:28:14;28.30;91.00
20726;DHT22;10524;48.132;8.518;2022-08-01T15:30:40;28.20;91.10
20726;DHT22;10524;48.132;8.518;2022-08-01T15:33:10;28.20;91.10
20726;DHT22;10524;48.132;8.518;2022-08-01T15:35:39;28.20;91.20
20726;DHT22;10524;48.132;8.518;2022-08-01T15:38:05;28.10;91.10
20726;DHT22;10524;48.132;8.518;2022-08-01T15:40:30;28.00;91.30
20726;DHT22;10524;48.132;8.518;2022-08-01T15:42:59;28.30;91.40
20726;DHT22;10524;48.132;8.518;2022-08-01T15:45:25;28.10;91.30
20726;DHT22;10524;48.132;8.518;2022-08-01T15:47:51;27.90;91.60
20726;DHT22;10524;48.132;8.518;2022-08-01T15:50:17;27.80;91.90
20726;DHT22;10524;48.132;8.518;2022-08-01T15:52:42;27.80;91.90
20726;DHT22;10524;48.132;8.518;2022-08-01T15:55:08;27.90;91.80
20726;DHT22;10524;48.132;8.518;2022-08-01T15:57:34;27.90;92.10
20726;DHT22;10524;48.132;8.518;2022-08-01T15:59:59;27.90;92.00
20726;DHT22;10524;48.132;8.518;2022-08-01T16:02:25;27.80;92.40
20726;DHT22;10524;48.132;8.518;2022-08-01T16:04:51;27.80;92.80
20726;DHT22;10524;48.132;8.518;2022-08-01T16:07:20;27.60;93.00
20726;DHT22;10524;48.132;8.518;2022-08-01T16:09:45;27.40;93.40
20726;DHT22;10524;48.132;8.518;2022-08-01T16:12:11;27.40;93.40
20726;DHT22;10524;48.132;8.518;2022-08-01T16:14:37;27.40;93.40